Accueil
METAR-TAF:

METAR-TAF

Aéroports :

Aéroport international de Maputo

Maputo, Mozambique

latitude: 25-55S, longitude: 032-34E, altitude: 39 m

Observation

Le bulletin a été fait il y a 58 minutes, à 18:00 UTC
Vent 7 kt de sud-est
Température 19°C
Humidité 56%
Pression 1031 hPa
Visibilité 10 km ou plus
Quelques nuages à une hauteur de 2500 ft

METAR: FQMA 221800Z 14007KT 9999 FEW025 19/10 Q1031 NOSIG

Heure: 20:58 (18:58 UTC)

Prévision

Le bulletin a été fait il y a 2 heures et 58 minutes, à 16:00 UTC
Prévision valable du 22 à 18 UTC au 23 à 24 UTC
Vent 10 kt de est/sud-est
Visibilité 10 km ou plus
Nuages fragmentés à une hauteur de 2000 ft
Evoluant progressivement
du 23 à 00 UTC au 23 à 02 UTC
Vent 7 kt de sud/sud-ouest
Evoluant progressivement
du 23 à 09 UTC au 23 à 11 UTC
Vent 12 kt de est/sud-est

TAF: FQMA 221600Z 2218/2324 12010KT 9999 BKN020 BECMG 2300/2302 21007KT BECMG 2309/2311 11012KT TX27/2313Z TN19/2303Z

Observations et prévisions météorologiques de plus de 4000 aéroports (messages METAR et TAF).

Les stations disponibles sont représentées par des disques jaunes et rouges sur la carte.

Passer la souris dessus pour voir le nom de la station.

Cliquer dessus pour voir les observations et prévisions météorologiques.

Pour changer de carte: cliquez sur les boutons verts avec une croix noire pour zoomer, sur le bouton vert avec un tiret pour effectuer un zoom arrière, ou sur les flèches vertes pour les cartes adjacentes.


METAR-TAF: